Godman Army Airfield (FTK)

 

Airport Diagram
Current Weather/Forecast (VFR Conditions)
METAR KFTK 190003Z AUTO 28003KT 10SM BKN090 OVC110 15/04 A2988 RMK AO2 RAB2358E03RAB03 SLP121 $
TAF TAF KFTK 161909Z 1619/1801 VRB06KT 9999 FEW050 BKN250 QNH2989INS BECMG 1711/1712 VRB06KT 9999 VCSH SCT025 BKN040 OVC100 QNH2992INS TEMPO 1712/1717 VRB05KT 4800 -SHRA BR BKN025 OVC040 TX16/1620Z TN07/1710Z LAST NO AMDS AFT 1703 NEXT 1911

Airport Information

All Charts
General
Chart Name View
AIRPORT DIAGRAM
AIRPORT DIAGRAM
TAKEOFF MINIMUMS
TAKEOFF MINIMUMS

Arrivals
Chart Name Download
CHERI FOUR
CHERI FOUR

Approaches
Chart Name Download
ILS OR LOC/DME RWY 18
RNAV (GPS) RWY 15
RNAV (GPS) RWY 18
RNAV (GPS) RWY 36
VOR/DME RWY 15
VOR/DME RWY 18
VOR/DME RWY 36
ILS OR LOC/DME RWY 18
RNAV (GPS) RWY 15
RNAV (GPS) RWY 18
RNAV (GPS) RWY 36
VOR/DME RWY 15
VOR/DME RWY 18
VOR/DME RWY 36


Airport Statistics
Departures Arrivals Local
All Collected Stats since June 2016: 25 26 0
2021 Stats: 0 1 0
April Stats: 0 0 0

Inbound Traffic (Arrivals) - 0

No inbound traffic.


Outbound Traffic (Departures) - 0

No outbound traffic.


Local Traffic (Pattern) - 0

No local traffic.